sensor_id;sensor_type;location;lat;lon;timestamp;P1;durP1;ratioP1;P2;durP2;ratioP2
52057;SDS011;38063;53.210;6.504;2023-08-07T00:00:34;6.25;;;2.97;;
52057;SDS011;38063;53.210;6.504;2023-08-07T00:03:00;6.10;;;3.08;;
52057;SDS011;38063;53.210;6.504;2023-08-07T00:05:26;6.15;;;3.65;;
52057;SDS011;38063;53.210;6.504;2023-08-07T00:07:51;4.38;;;3.00;;
52057;SDS011;38063;53.210;6.504;2023-08-07T00:10:17;6.63;;;3.28;;
52057;SDS011;38063;53.210;6.504;2023-08-07T00:12:43;4.60;;;2.92;;
52057;SDS011;38063;53.210;6.504;2023-08-07T00:15:09;4.55;;;2.40;;
52057;SDS011;38063;53.210;6.504;2023-08-07T00:17:36;7.55;;;2.50;;
52057;SDS011;38063;53.210;6.504;2023-08-07T00:20:02;3.53;;;2.17;;
52057;SDS011;38063;53.210;6.504;2023-08-07T00:22:28;4.88;;;2.17;;
52057;SDS011;38063;53.210;6.504;2023-08-07T00:24:54;3.95;;;2.53;;
52057;SDS011;38063;53.210;6.504;2023-08-07T00:27:19;4.00;;;2.20;;
52057;SDS011;38063;53.210;6.504;2023-08-07T00:29:45;5.50;;;2.20;;
52057;SDS011;38063;53.210;6.504;2023-08-07T00:32:11;4.97;;;2.30;;
52057;SDS011;38063;53.210;6.504;2023-08-07T00:34:36;5.97;;;2.45;;
52057;SDS011;38063;53.210;6.504;2023-08-07T00:37:02;3.63;;;2.10;;
52057;SDS011;38063;53.210;6.504;2023-08-07T00:39:28;4.13;;;2.40;;
52057;SDS011;38063;53.210;6.504;2023-08-07T00:41:53;4.32;;;2.50;;
52057;SDS011;38063;53.210;6.504;2023-08-07T00:44:19;4.35;;;2.47;;
52057;SDS011;38063;53.210;6.504;2023-08-07T00:46:45;5.85;;;2.42;;
52057;SDS011;38063;53.210;6.504;2023-08-07T00:49:11;5.53;;;2.85;;
52057;SDS011;38063;53.210;6.504;2023-08-07T00:51:38;6.88;;;2.80;;
52057;SDS011;38063;53.210;6.504;2023-08-07T00:54:05;5.75;;;2.53;;
52057;SDS011;38063;53.210;6.504;2023-08-07T00:56:32;4.20;;;2.20;;
52057;SDS011;38063;53.210;6.504;2023-08-07T00:58:59;4.80;;;2.30;;
52057;SDS011;38063;53.210;6.504;2023-08-07T01:01:25;5.22;;;2.55;;
52057;SDS011;38063;53.210;6.504;2023-08-07T01:03:51;6.10;;;2.17;;
52057;SDS011;38063;53.210;6.504;2023-08-07T01:06:17;4.80;;;2.30;;
52057;SDS011;38063;53.210;6.504;2023-08-07T01:08:43;4.65;;;2.58;;
52057;SDS011;38063;53.210;6.504;2023-08-07T01:13:40;4.38;;;2.63;;
52057;SDS011;38063;53.210;6.504;2023-08-07T01:16:27;6.53;;;2.40;;
52057;SDS011;38063;53.210;6.504;2023-08-07T01:19:00;4.18;;;2.58;;
52057;SDS011;38063;53.210;6.504;2023-08-07T01:21:28;8.88;;;2.60;;
52057;SDS011;38063;53.210;6.504;2023-08-07T01:23:54;6.50;;;2.75;;
52057;SDS011;38063;53.210;6.504;2023-08-07T01:26:20;6.20;;;2.40;;
52057;SDS011;38063;53.210;6.504;2023-08-07T01:28:49;4.03;;;2.78;;
52057;SDS011;38063;53.210;6.504;2023-08-07T01:31:31;3.33;;;2.30;;
52057;SDS011;38063;53.210;6.504;2023-08-07T01:34:02;5.95;;;2.50;;
52057;SDS011;38063;53.210;6.504;2023-08-07T01:36:31;5.07;;;2.90;;
52057;SDS011;38063;53.210;6.504;2023-08-07T01:38:59;6.90;;;3.42;;
52057;SDS011;38063;53.210;6.504;2023-08-07T01:41:26;7.63;;;3.40;;
52057;SDS011;38063;53.210;6.504;2023-08-07T01:43:52;9.38;;;3.63;;
52057;SDS011;38063;53.210;6.504;2023-08-07T01:46:19;5.85;;;3.13;;
52057;SDS011;38063;53.210;6.504;2023-08-07T01:48:45;7.60;;;3.53;;
52057;SDS011;38063;53.210;6.504;2023-08-07T01:51:10;7.60;;;3.47;;
52057;SDS011;38063;53.210;6.504;2023-08-07T01:53:36;5.85;;;3.20;;
52057;SDS011;38063;53.210;6.504;2023-08-07T01:56:02;4.45;;;2.92;;
52057;SDS011;38063;53.210;6.504;2023-08-07T01:58:27;7.35;;;2.80;;
52057;SDS011;38063;53.210;6.504;2023-08-07T02:00:53;6.53;;;2.90;;
52057;SDS011;38063;53.210;6.504;2023-08-07T02:03:19;8.95;;;2.80;;
52057;SDS011;38063;53.210;6.504;2023-08-07T02:05:45;7.57;;;2.70;;
52057;SDS011;38063;53.210;6.504;2023-08-07T02:08:11;9.30;;;2.45;;
52057;SDS011;38063;53.210;6.504;2023-08-07T02:10:37;9.00;;;2.75;;
52057;SDS011;38063;53.210;6.504;2023-08-07T02:13:03;9.88;;;2.95;;
52057;SDS011;38063;53.210;6.504;2023-08-07T02:15:29;11.88;;;2.65;;
52057;SDS011;38063;53.210;6.504;2023-08-07T02:17:54;8.63;;;2.50;;
52057;SDS011;38063;53.210;6.504;2023-08-07T02:20:20;6.95;;;3.25;;
52057;SDS011;38063;53.210;6.504;2023-08-07T02:22:46;12.68;;;2.70;;
52057;SDS011;38063;53.210;6.504;2023-08-07T02:25:12;12.93;;;2.33;;
52057;SDS011;38063;53.210;6.504;2023-08-07T02:27:37;8.98;;;2.88;;
52057;SDS011;38063;53.210;6.504;2023-08-07T02:30:04;12.13;;;2.85;;
52057;SDS011;38063;53.210;6.504;2023-08-07T02:32:30;11.50;;;3.17;;
52057;SDS011;38063;53.210;6.504;2023-08-07T02:34:56;7.70;;;2.47;;
52057;SDS011;38063;53.210;6.504;2023-08-07T02:37:22;8.15;;;2.53;;
52057;SDS011;38063;53.210;6.504;2023-08-07T02:39:47;9.45;;;2.92;;
52057;SDS011;38063;53.210;6.504;2023-08-07T02:42:13;10.40;;;2.90;;
52057;SDS011;38063;53.210;6.504;2023-08-07T02:44:39;12.50;;;2.40;;
52057;SDS011;38063;53.210;6.504;2023-08-07T02:47:05;9.93;;;2.50;;
52057;SDS011;38063;53.210;6.504;2023-08-07T02:49:31;11.02;;;3.00;;
52057;SDS011;38063;53.210;6.504;2023-08-07T02:51:56;9.93;;;2.95;;
52057;SDS011;38063;53.210;6.504;2023-08-07T02:54:22;9.48;;;3.00;;
52057;SDS011;38063;53.210;6.504;2023-08-07T02:56:48;11.18;;;3.00;;
52057;SDS011;38063;53.210;6.504;2023-08-07T02:59:14;9.90;;;2.78;;
52057;SDS011;38063;53.210;6.504;2023-08-07T03:01:40;12.77;;;3.05;;
52057;SDS011;38063;53.210;6.504;2023-08-07T03:04:06;9.13;;;3.20;;
52057;SDS011;38063;53.210;6.504;2023-08-07T03:06:31;11.65;;;3.30;;
52057;SDS011;38063;53.210;6.504;2023-08-07T03:08:57;8.90;;;2.80;;
52057;SDS011;38063;53.210;6.504;2023-08-07T03:11:23;11.48;;;3.30;;
52057;SDS011;38063;53.210;6.504;2023-08-07T03:13:48;14.05;;;3.80;;
52057;SDS011;38063;53.210;6.504;2023-08-07T03:16:14;11.38;;;3.60;;
52057;SDS011;38063;53.210;6.504;2023-08-07T03:18:40;14.18;;;3.30;;
52057;SDS011;38063;53.210;6.504;2023-08-07T03:21:05;12.23;;;2.95;;
52057;SDS011;38063;53.210;6.504;2023-08-07T03:23:31;12.52;;;3.10;;
52057;SDS011;38063;53.210;6.504;2023-08-07T03:26:10;9.40;;;3.03;;
52057;SDS011;38063;53.210;6.504;2023-08-07T03:28:37;10.68;;;2.55;;
52057;SDS011;38063;53.210;6.504;2023-08-07T03:31:03;8.57;;;2.60;;
52057;SDS011;38063;53.210;6.504;2023-08-07T03:33:29;6.15;;;2.10;;
52057;SDS011;38063;53.210;6.504;2023-08-07T03:35:54;8.70;;;2.03;;
52057;SDS011;38063;53.210;6.504;2023-08-07T03:38:20;5.97;;;2.13;;
52057;SDS011;38063;53.210;6.504;2023-08-07T03:40:46;5.45;;;2.85;;
52057;SDS011;38063;53.210;6.504;2023-08-07T03:43:12;11.43;;;1.90;;
52057;SDS011;38063;53.210;6.504;2023-08-07T03:45:38;9.02;;;2.20;;
52057;SDS011;38063;53.210;6.504;2023-08-07T03:48:04;9.95;;;2.72;;
52057;SDS011;38063;53.210;6.504;2023-08-07T03:50:30;7.90;;;2.60;;
52057;SDS011;38063;53.210;6.504;2023-08-07T03:52:55;13.13;;;2.50;;
52057;SDS011;38063;53.210;6.504;2023-08-07T03:55:21;11.05;;;2.72;;
52057;SDS011;38063;53.210;6.504;2023-08-07T03:57:47;12.25;;;3.45;;
52057;SDS011;38063;53.210;6.504;2023-08-07T04:00:13;10.07;;;2.70;;
52057;SDS011;38063;53.210;6.504;2023-08-07T04:02:39;12.93;;;3.42;;
52057;SDS011;38063;53.210;6.504;2023-08-07T04:05:05;13.40;;;3.38;;
52057;SDS011;38063;53.210;6.504;2023-08-07T04:07:31;12.48;;;3.15;;
52057;SDS011;38063;53.210;6.504;2023-08-07T04:09:57;9.43;;;3.00;;
52057;SDS011;38063;53.210;6.504;2023-08-07T04:12:22;17.77;;;3.53;;
52057;SDS011;38063;53.210;6.504;2023-08-07T04:14:48;13.90;;;3.35;;
52057;SDS011;38063;53.210;6.504;2023-08-07T04:17:13;17.80;;;4.57;;
52057;SDS011;38063;53.210;6.504;2023-08-07T04:19:39;10.85;;;3.25;;
52057;SDS011;38063;53.210;6.504;2023-08-07T04:22:05;10.65;;;3.53;;
52057;SDS011;38063;53.210;6.504;2023-08-07T04:24:30;15.80;;;3.28;;
52057;SDS011;38063;53.210;6.504;2023-08-07T04:26:56;19.38;;;2.90;;
52057;SDS011;38063;53.210;6.504;2023-08-07T04:29:22;15.13;;;3.13;;
52057;SDS011;38063;53.210;6.504;2023-08-07T04:31:48;11.50;;;2.65;;
52057;SDS011;38063;53.210;6.504;2023-08-07T04:34:14;14.38;;;3.03;;
52057;SDS011;38063;53.210;6.504;2023-08-07T04:36:40;15.85;;;3.00;;
52057;SDS011;38063;53.210;6.504;2023-08-07T04:39:05;12.50;;;3.10;;
52057;SDS011;38063;53.210;6.504;2023-08-07T04:41:32;17.15;;;3.55;;
52057;SDS011;38063;53.210;6.504;2023-08-07T04:43:58;10.95;;;2.97;;
52057;SDS011;38063;53.210;6.504;2023-08-07T04:46:23;11.02;;;2.70;;
52057;SDS011;38063;53.210;6.504;2023-08-07T04:48:49;13.10;;;3.28;;
52057;SDS011;38063;53.210;6.504;2023-08-07T04:51:15;17.83;;;3.70;;
52057;SDS011;38063;53.210;6.504;2023-08-07T04:53:40;11.23;;;3.08;;
52057;SDS011;38063;53.210;6.504;2023-08-07T04:56:06;15.40;;;3.38;;
52057;SDS011;38063;53.210;6.504;2023-08-07T04:58:32;18.35;;;4.03;;
52057;SDS011;38063;53.210;6.504;2023-08-07T05:00:58;14.50;;;3.28;;
52057;SDS011;38063;53.210;6.504;2023-08-07T05:03:24;13.13;;;3.10;;
52057;SDS011;38063;53.210;6.504;2023-08-07T05:05:57;13.35;;;2.83;;
52057;SDS011;38063;53.210;6.504;2023-08-07T05:08:23;16.92;;;2.92;;
52057;SDS011;38063;53.210;6.504;2023-08-07T05:10:49;10.15;;;2.75;;
52057;SDS011;38063;53.210;6.504;2023-08-07T05:13:15;15.82;;;3.42;;
52057;SDS011;38063;53.210;6.504;2023-08-07T05:15:40;15.55;;;3.95;;
52057;SDS011;38063;53.210;6.504;2023-08-07T05:18:06;18.40;;;3.58;;
52057;SDS011;38063;53.210;6.504;2023-08-07T05:20:32;16.10;;;3.33;;
52057;SDS011;38063;53.210;6.504;2023-08-07T05:22:57;12.10;;;3.05;;
52057;SDS011;38063;53.210;6.504;2023-08-07T05:25:23;18.10;;;3.95;;
52057;SDS011;38063;53.210;6.504;2023-08-07T05:27:49;14.32;;;3.63;;
52057;SDS011;38063;53.210;6.504;2023-08-07T05:30:14;12.25;;;3.00;;
52057;SDS011;38063;53.210;6.504;2023-08-07T05:32:40;11.60;;;3.15;;
52057;SDS011;38063;53.210;6.504;2023-08-07T05:35:06;9.68;;;2.40;;
52057;SDS011;38063;53.210;6.504;2023-08-07T05:37:33;13.10;;;3.25;;
52057;SDS011;38063;53.210;6.504;2023-08-07T05:39:59;13.82;;;2.97;;
52057;SDS011;38063;53.210;6.504;2023-08-07T05:42:24;16.88;;;2.80;;
52057;SDS011;38063;53.210;6.504;2023-08-07T05:44:50;14.70;;;3.50;;
52057;SDS011;38063;53.210;6.504;2023-08-07T05:47:16;10.52;;;3.00;;
52057;SDS011;38063;53.210;6.504;2023-08-07T05:49:41;11.18;;;2.70;;
52057;SDS011;38063;53.210;6.504;2023-08-07T05:52:07;14.90;;;2.63;;
52057;SDS011;38063;53.210;6.504;2023-08-07T05:54:33;10.02;;;2.58;;
52057;SDS011;38063;53.210;6.504;2023-08-07T05:56:59;9.00;;;2.22;;
52057;SDS011;38063;53.210;6.504;2023-08-07T05:59:25;13.07;;;2.55;;
52057;SDS011;38063;53.210;6.504;2023-08-07T06:01:51;7.22;;;2.25;;
52057;SDS011;38063;53.210;6.504;2023-08-07T06:04:17;9.90;;;2.50;;
52057;SDS011;38063;53.210;6.504;2023-08-07T06:06:43;10.40;;;2.65;;
52057;SDS011;38063;53.210;6.504;2023-08-07T06:09:09;10.60;;;2.80;;
52057;SDS011;38063;53.210;6.504;2023-08-07T06:11:35;11.50;;;2.78;;
52057;SDS011;38063;53.210;6.504;2023-08-07T06:14:01;12.70;;;2.45;;
52057;SDS011;38063;53.210;6.504;2023-08-07T06:16:26;11.07;;;2.83;;
52057;SDS011;38063;53.210;6.504;2023-08-07T06:18:52;11.27;;;2.47;;
52057;SDS011;38063;53.210;6.504;2023-08-07T06:21:18;13.40;;;2.78;;
52057;SDS011;38063;53.210;6.504;2023-08-07T06:23:45;12.70;;;2.55;;
52057;SDS011;38063;53.210;6.504;2023-08-07T06:26:12;11.55;;;2.67;;
52057;SDS011;38063;53.210;6.504;2023-08-07T06:28:38;13.00;;;2.97;;
52057;SDS011;38063;53.210;6.504;2023-08-07T06:31:04;11.38;;;2.60;;
52057;SDS011;38063;53.210;6.504;2023-08-07T06:33:34;9.30;;;2.13;;
52057;SDS011;38063;53.210;6.504;2023-08-07T06:36:01;8.27;;;2.30;;
52057;SDS011;38063;53.210;6.504;2023-08-07T06:38:28;8.35;;;2.75;;
52057;SDS011;38063;53.210;6.504;2023-08-07T06:40:54;5.28;;;2.00;;
52057;SDS011;38063;53.210;6.504;2023-08-07T06:43:20;8.57;;;2.30;;
52057;SDS011;38063;53.210;6.504;2023-08-07T06:45:46;8.73;;;2.05;;
52057;SDS011;38063;53.210;6.504;2023-08-07T06:48:16;9.57;;;2.45;;
52057;SDS011;38063;53.210;6.504;2023-08-07T06:50:42;14.45;;;2.55;;
52057;SDS011;38063;53.210;6.504;2023-08-07T06:53:07;9.32;;;2.53;;
52057;SDS011;38063;53.210;6.504;2023-08-07T06:55:33;9.85;;;3.10;;
52057;SDS011;38063;53.210;6.504;2023-08-07T06:57:59;7.50;;;2.60;;
52057;SDS011;38063;53.210;6.504;2023-08-07T07:00:25;11.55;;;2.92;;
52057;SDS011;38063;53.210;6.504;2023-08-07T07:02:50;10.63;;;2.40;;
52057;SDS011;38063;53.210;6.504;2023-08-07T07:05:16;9.38;;;2.15;;
52057;SDS011;38063;53.210;6.504;2023-08-07T07:07:42;7.35;;;2.70;;
52057;SDS011;38063;53.210;6.504;2023-08-07T07:10:08;7.00;;;1.95;;
52057;SDS011;38063;53.210;6.504;2023-08-07T07:12:33;10.90;;;2.63;;
52057;SDS011;38063;53.210;6.504;2023-08-07T07:14:59;9.45;;;2.90;;
52057;SDS011;38063;53.210;6.504;2023-08-07T07:17:25;12.27;;;2.50;;
52057;SDS011;38063;53.210;6.504;2023-08-07T07:19:50;10.07;;;2.30;;
52057;SDS011;38063;53.210;6.504;2023-08-07T07:22:16;9.43;;;2.20;;
52057;SDS011;38063;53.210;6.504;2023-08-07T07:24:42;7.95;;;2.40;;
52057;SDS011;38063;53.210;6.504;2023-08-07T07:27:07;8.20;;;2.50;;
52057;SDS011;38063;53.210;6.504;2023-08-07T07:29:33;11.52;;;2.65;;
52057;SDS011;38063;53.210;6.504;2023-08-07T07:31:58;8.57;;;2.30;;
52057;SDS011;38063;53.210;6.504;2023-08-07T07:34:24;13.18;;;2.00;;
52057;SDS011;38063;53.210;6.504;2023-08-07T07:36:50;11.68;;;2.53;;
52057;SDS011;38063;53.210;6.504;2023-08-07T07:39:16;11.23;;;2.65;;
52057;SDS011;38063;53.210;6.504;2023-08-07T07:41:42;12.00;;;2.65;;
52057;SDS011;38063;53.210;6.504;2023-08-07T07:44:08;9.90;;;2.60;;
52057;SDS011;38063;53.210;6.504;2023-08-07T07:46:33;11.45;;;3.10;;
52057;SDS011;38063;53.210;6.504;2023-08-07T07:48:59;14.77;;;3.42;;
52057;SDS011;38063;53.210;6.504;2023-08-07T07:51:26;13.50;;;2.72;;
52057;SDS011;38063;53.210;6.504;2023-08-07T07:53:52;7.20;;;2.42;;
52057;SDS011;38063;53.210;6.504;2023-08-07T07:56:18;8.77;;;3.03;;
52057;SDS011;38063;53.210;6.504;2023-08-07T07:58:43;10.23;;;2.90;;
52057;SDS011;38063;53.210;6.504;2023-08-07T08:01:09;13.13;;;2.75;;
52057;SDS011;38063;53.210;6.504;2023-08-07T08:03:35;12.85;;;2.75;;
52057;SDS011;38063;53.210;6.504;2023-08-07T08:06:00;16.98;;;3.20;;
52057;SDS011;38063;53.210;6.504;2023-08-07T08:08:26;9.80;;;2.35;;
52057;SDS011;38063;53.210;6.504;2023-08-07T08:10:52;12.10;;;3.35;;
52057;SDS011;38063;53.210;6.504;2023-08-07T08:13:17;10.98;;;2.85;;
52057;SDS011;38063;53.210;6.504;2023-08-07T08:15:44;11.93;;;2.70;;
52057;SDS011;38063;53.210;6.504;2023-08-07T08:18:10;11.60;;;2.63;;
52057;SDS011;38063;53.210;6.504;2023-08-07T08:20:37;10.88;;;2.80;;
52057;SDS011;38063;53.210;6.504;2023-08-07T08:23:03;11.07;;;3.10;;
52057;SDS011;38063;53.210;6.504;2023-08-07T08:25:29;12.77;;;2.60;;
52057;SDS011;38063;53.210;6.504;2023-08-07T08:27:56;14.05;;;3.03;;
52057;SDS011;38063;53.210;6.504;2023-08-07T08:30:21;12.88;;;3.50;;
52057;SDS011;38063;53.210;6.504;2023-08-07T08:32:47;14.10;;;3.13;;
52057;SDS011;38063;53.210;6.504;2023-08-07T08:35:13;12.15;;;2.70;;
52057;SDS011;38063;53.210;6.504;2023-08-07T08:37:39;10.23;;;2.67;;
52057;SDS011;38063;53.210;6.504;2023-08-07T08:40:05;12.65;;;2.78;;
52057;SDS011;38063;53.210;6.504;2023-08-07T08:42:33;5.57;;;2.13;;
52057;SDS011;38063;53.210;6.504;2023-08-07T08:44:59;7.70;;;2.13;;
52057;SDS011;38063;53.210;6.504;2023-08-07T08:47:27;9.70;;;2.20;;
52057;SDS011;38063;53.210;6.504;2023-08-07T08:52:32;11.77;;;2.60;;
52057;SDS011;38063;53.210;6.504;2023-08-07T08:55:01;6.22;;;2.15;;
52057;SDS011;38063;53.210;6.504;2023-08-07T08:57:27;7.75;;;2.00;;
52057;SDS011;38063;53.210;6.504;2023-08-07T08:59:55;7.32;;;1.88;;
52057;SDS011;38063;53.210;6.504;2023-08-07T09:02:22;6.80;;;1.70;;
52057;SDS011;38063;53.210;6.504;2023-08-07T09:04:47;9.50;;;2.40;;
52057;SDS011;38063;53.210;6.504;2023-08-07T09:07:14;7.63;;;1.85;;
52057;SDS011;38063;53.210;6.504;2023-08-07T09:09:43;10.27;;;2.10;;
52057;SDS011;38063;53.210;6.504;2023-08-07T09:12:16;9.88;;;2.25;;
52057;SDS011;38063;53.210;6.504;2023-08-07T09:14:44;10.73;;;2.13;;
52057;SDS011;38063;53.210;6.504;2023-08-07T09:17:15;6.50;;;1.98;;
52057;SDS011;38063;53.210;6.504;2023-08-07T09:19:42;7.72;;;2.33;;
52057;SDS011;38063;53.210;6.504;2023-08-07T09:22:08;5.18;;;1.55;;
52057;SDS011;38063;53.210;6.504;2023-08-07T09:24:34;9.02;;;2.30;;
52057;SDS011;38063;53.210;6.504;2023-08-07T09:26:59;8.73;;;2.35;;
52057;SDS011;38063;53.210;6.504;2023-08-07T09:29:25;6.47;;;1.50;;
52057;SDS011;38063;53.210;6.504;2023-08-07T09:31:53;8.80;;;2.15;;
52057;SDS011;38063;53.210;6.504;2023-08-07T09:34:20;8.05;;;2.25;;
52057;SDS011;38063;53.210;6.504;2023-08-07T09:36:46;6.75;;;2.00;;
52057;SDS011;38063;53.210;6.504;2023-08-07T09:39:11;12.45;;;2.05;;
52057;SDS011;38063;53.210;6.504;2023-08-07T09:41:37;11.98;;;2.63;;
52057;SDS011;38063;53.210;6.504;2023-08-07T09:44:06;4.95;;;1.80;;
52057;SDS011;38063;53.210;6.504;2023-08-07T09:46:45;9.25;;;2.35;;
52057;SDS011;38063;53.210;6.504;2023-08-07T09:49:10;8.45;;;2.08;;
52057;SDS011;38063;53.210;6.504;2023-08-07T09:51:43;7.30;;;2.00;;
52057;SDS011;38063;53.210;6.504;2023-08-07T09:54:09;7.07;;;1.92;;
52057;SDS011;38063;53.210;6.504;2023-08-07T09:56:35;6.65;;;2.00;;
52057;SDS011;38063;53.210;6.504;2023-08-07T09:59:01;7.28;;;2.17;;
52057;SDS011;38063;53.210;6.504;2023-08-07T10:01:28;7.25;;;2.00;;
52057;SDS011;38063;53.210;6.504;2023-08-07T10:03:54;14.77;;;2.63;;
52057;SDS011;38063;53.210;6.504;2023-08-07T10:06:20;7.15;;;2.13;;
52057;SDS011;38063;53.210;6.504;2023-08-07T10:08:47;8.70;;;2.45;;
52057;SDS011;38063;53.210;6.504;2023-08-07T10:11:13;8.68;;;2.05;;
52057;SDS011;38063;53.210;6.504;2023-08-07T10:13:40;9.10;;;2.35;;
52057;SDS011;38063;53.210;6.504;2023-08-07T10:16:06;6.80;;;2.03;;
52057;SDS011;38063;53.210;6.504;2023-08-07T10:18:33;8.27;;;2.03;;
52057;SDS011;38063;53.210;6.504;2023-08-07T10:21:00;16.50;;;2.20;;
52057;SDS011;38063;53.210;6.504;2023-08-07T10:23:27;9.20;;;2.25;;
52057;SDS011;38063;53.210;6.504;2023-08-07T10:25:53;11.48;;;2.03;;
52057;SDS011;38063;53.210;6.504;2023-08-07T10:28:20;8.27;;;1.92;;
52057;SDS011;38063;53.210;6.504;2023-08-07T10:30:48;8.50;;;1.88;;
52057;SDS011;38063;53.210;6.504;2023-08-07T10:33:15;10.13;;;2.40;;
52057;SDS011;38063;53.210;6.504;2023-08-07T10:35:47;10.35;;;2.05;;
52057;SDS011;38063;53.210;6.504;2023-08-07T10:38:13;9.35;;;2.13;;
52057;SDS011;38063;53.210;6.504;2023-08-07T10:40:58;16.15;;;2.65;;
52057;SDS011;38063;53.210;6.504;2023-08-07T10:43:24;8.90;;;2.03;;
52057;SDS011;38063;53.210;6.504;2023-08-07T10:45:52;5.10;;;1.65;;
52057;SDS011;38063;53.210;6.504;2023-08-07T10:48:19;6.30;;;1.88;;
52057;SDS011;38063;53.210;6.504;2023-08-07T10:53:32;7.05;;;1.63;;
52057;SDS011;38063;53.210;6.504;2023-08-07T10:56:02;7.72;;;1.42;;
52057;SDS011;38063;53.210;6.504;2023-08-07T10:58:39;6.40;;;1.60;;
52057;SDS011;38063;53.210;6.504;2023-08-07T11:01:15;7.43;;;1.48;;
52057;SDS011;38063;53.210;6.504;2023-08-07T11:03:45;7.88;;;1.80;;
52057;SDS011;38063;53.210;6.504;2023-08-07T11:06:13;8.80;;;2.05;;
52057;SDS011;38063;53.210;6.504;2023-08-07T11:08:40;5.95;;;1.73;;
52057;SDS011;38063;53.210;6.504;2023-08-07T11:11:06;8.13;;;1.70;;
52057;SDS011;38063;53.210;6.504;2023-08-07T11:13:32;6.57;;;1.75;;
52057;SDS011;38063;53.210;6.504;2023-08-07T11:15:59;8.07;;;2.30;;
52057;SDS011;38063;53.210;6.504;2023-08-07T11:18:28;10.52;;;1.90;;
52057;SDS011;38063;53.210;6.504;2023-08-07T11:20:57;11.30;;;2.00;;
52057;SDS011;38063;53.210;6.504;2023-08-07T11:23:24;7.05;;;1.67;;
52057;SDS011;38063;53.210;6.504;2023-08-07T11:25:51;7.82;;;2.22;;
52057;SDS011;38063;53.210;6.504;2023-08-07T11:28:18;8.52;;;2.10;;
52057;SDS011;38063;53.210;6.504;2023-08-07T11:30:48;4.68;;;1.88;;
52057;SDS011;38063;53.210;6.504;2023-08-07T11:33:17;6.93;;;1.73;;
52057;SDS011;38063;53.210;6.504;2023-08-07T11:35:44;9.02;;;2.28;;
52057;SDS011;38063;53.210;6.504;2023-08-07T11:38:10;7.63;;;2.10;;
52057;SDS011;38063;53.210;6.504;2023-08-07T11:40:36;7.15;;;1.70;;
52057;SDS011;38063;53.210;6.504;2023-08-07T11:43:02;7.30;;;1.95;;
52057;SDS011;38063;53.210;6.504;2023-08-07T11:45:28;6.22;;;1.60;;
52057;SDS011;38063;53.210;6.504;2023-08-07T11:47:54;5.65;;;1.33;;
52057;SDS011;38063;53.210;6.504;2023-08-07T11:50:22;2.05;;;1.15;;
52057;SDS011;38063;53.210;6.504;2023-08-07T11:52:47;5.70;;;1.70;;
52057;SDS011;38063;53.210;6.504;2023-08-07T11:55:14;5.88;;;1.73;;
52057;SDS011;38063;53.210;6.504;2023-08-07T11:57:40;5.55;;;1.88;;
52057;SDS011;38063;53.210;6.504;2023-08-07T12:00:07;5.05;;;2.22;;
52057;SDS011;38063;53.210;6.504;2023-08-07T12:02:43;6.35;;;1.90;;
52057;SDS011;38063;53.210;6.504;2023-08-07T12:05:10;4.90;;;1.77;;
52057;SDS011;38063;53.210;6.504;2023-08-07T12:07:36;7.40;;;1.90;;
52057;SDS011;38063;53.210;6.504;2023-08-07T12:10:09;8.60;;;2.17;;
52057;SDS011;38063;53.210;6.504;2023-08-07T12:12:36;5.32;;;1.40;;
52057;SDS011;38063;53.210;6.504;2023-08-07T12:15:04;9.85;;;2.25;;
52057;SDS011;38063;53.210;6.504;2023-08-07T12:17:35;5.25;;;1.85;;
52057;SDS011;38063;53.210;6.504;2023-08-07T12:20:03;5.60;;;2.13;;
52057;SDS011;38063;53.210;6.504;2023-08-07T12:22:36;8.00;;;2.25;;
52057;SDS011;38063;53.210;6.504;2023-08-07T12:25:02;8.30;;;1.92;;
52057;SDS011;38063;53.210;6.504;2023-08-07T12:27:28;6.45;;;1.98;;
52057;SDS011;38063;53.210;6.504;2023-08-07T12:29:55;7.32;;;2.10;;
52057;SDS011;38063;53.210;6.504;2023-08-07T12:32:20;5.18;;;1.80;;
52057;SDS011;38063;53.210;6.504;2023-08-07T12:34:46;7.65;;;2.45;;
52057;SDS011;38063;53.210;6.504;2023-08-07T12:37:15;7.47;;;2.33;;
52057;SDS011;38063;53.210;6.504;2023-08-07T12:39:40;8.02;;;2.03;;
52057;SDS011;38063;53.210;6.504;2023-08-07T12:42:06;7.70;;;1.90;;
52057;SDS011;38063;53.210;6.504;2023-08-07T12:44:32;5.20;;;1.63;;
52057;SDS011;38063;53.210;6.504;2023-08-07T12:46:58;5.45;;;1.65;;
52057;SDS011;38063;53.210;6.504;2023-08-07T12:49:23;5.60;;;1.67;;
52057;SDS011;38063;53.210;6.504;2023-08-07T12:51:49;5.18;;;2.03;;
52057;SDS011;38063;53.210;6.504;2023-08-07T12:54:15;7.65;;;1.63;;
52057;SDS011;38063;53.210;6.504;2023-08-07T12:56:41;6.18;;;1.83;;
52057;SDS011;38063;53.210;6.504;2023-08-07T12:59:06;12.77;;;2.10;;
52057;SDS011;38063;53.210;6.504;2023-08-07T13:01:32;8.07;;;1.70;;
52057;SDS011;38063;53.210;6.504;2023-08-07T13:03:57;5.78;;;1.98;;
52057;SDS011;38063;53.210;6.504;2023-08-07T13:06:23;6.78;;;2.00;;
52057;SDS011;38063;53.210;6.504;2023-08-07T13:08:49;5.57;;;1.83;;
52057;SDS011;38063;53.210;6.504;2023-08-07T13:11:14;10.43;;;1.80;;
52057;SDS011;38063;53.210;6.504;2023-08-07T13:13:40;9.13;;;2.20;;
52057;SDS011;38063;53.210;6.504;2023-08-07T13:16:06;8.32;;;2.22;;
52057;SDS011;38063;53.210;6.504;2023-08-07T13:18:31;9.82;;;2.45;;
52057;SDS011;38063;53.210;6.504;2023-08-07T13:20:57;10.80;;;2.50;;
52057;SDS011;38063;53.210;6.504;2023-08-07T13:23:24;8.38;;;2.47;;
52057;SDS011;38063;53.210;6.504;2023-08-07T13:25:49;8.07;;;2.33;;
52057;SDS011;38063;53.210;6.504;2023-08-07T13:28:15;7.55;;;1.90;;
52057;SDS011;38063;53.210;6.504;2023-08-07T13:30:41;5.53;;;1.77;;
52057;SDS011;38063;53.210;6.504;2023-08-07T13:33:07;7.53;;;2.05;;
52057;SDS011;38063;53.210;6.504;2023-08-07T13:35:33;9.00;;;2.60;;
52057;SDS011;38063;53.210;6.504;2023-08-07T13:37:58;10.68;;;2.47;;
52057;SDS011;38063;53.210;6.504;2023-08-07T13:40:24;9.25;;;2.22;;
52057;SDS011;38063;53.210;6.504;2023-08-07T13:42:50;7.50;;;2.70;;
52057;SDS011;38063;53.210;6.504;2023-08-07T13:45:15;7.28;;;2.20;;
52057;SDS011;38063;53.210;6.504;2023-08-07T13:47:41;6.00;;;2.20;;
52057;SDS011;38063;53.210;6.504;2023-08-07T13:50:07;8.27;;;2.25;;
52057;SDS011;38063;53.210;6.504;2023-08-07T13:52:35;7.07;;;2.25;;
52057;SDS011;38063;53.210;6.504;2023-08-07T13:55:01;8.38;;;2.15;;
52057;SDS011;38063;53.210;6.504;2023-08-07T13:57:26;4.70;;;2.03;;
52057;SDS011;38063;53.210;6.504;2023-08-07T13:59:52;7.68;;;1.92;;
52057;SDS011;38063;53.210;6.504;2023-08-07T14:02:19;6.13;;;2.03;;
52057;SDS011;38063;53.210;6.504;2023-08-07T14:04:45;7.75;;;2.20;;
52057;SDS011;38063;53.210;6.504;2023-08-07T14:07:11;10.85;;;2.42;;
52057;SDS011;38063;53.210;6.504;2023-08-07T14:09:37;8.07;;;2.72;;
52057;SDS011;38063;53.210;6.504;2023-08-07T14:12:03;6.75;;;2.13;;
52057;SDS011;38063;53.210;6.504;2023-08-07T14:14:28;5.72;;;1.85;;
52057;SDS011;38063;53.210;6.504;2023-08-07T14:16:54;10.23;;;2.53;;
52057;SDS011;38063;53.210;6.504;2023-08-07T14:19:22;8.98;;;2.00;;
52057;SDS011;38063;53.210;6.504;2023-08-07T14:21:49;4.80;;;1.63;;
52057;SDS011;38063;53.210;6.504;2023-08-07T14:24:15;7.70;;;2.00;;
52057;SDS011;38063;53.210;6.504;2023-08-07T14:26:42;5.03;;;1.45;;
52057;SDS011;38063;53.210;6.504;2023-08-07T14:29:07;8.38;;;2.20;;
52057;SDS011;38063;53.210;6.504;2023-08-07T14:31:33;6.28;;;2.00;;
52057;SDS011;38063;53.210;6.504;2023-08-07T14:33:59;5.88;;;2.17;;
52057;SDS011;38063;53.210;6.504;2023-08-07T14:36:25;6.75;;;1.92;;
52057;SDS011;38063;53.210;6.504;2023-08-07T14:38:50;5.15;;;1.85;;
52057;SDS011;38063;53.210;6.504;2023-08-07T14:41:16;3.58;;;1.80;;
52057;SDS011;38063;53.210;6.504;2023-08-07T14:43:43;7.90;;;1.40;;
52057;SDS011;38063;53.210;6.504;2023-08-07T14:46:10;5.63;;;1.90;;